createdAt,value
2018-02-21T00:02:57.873Z,36.97
2018-02-21T00:06:07.914Z,29.25
2018-02-21T00:09:17.848Z,37.75
2018-02-21T00:12:28.493Z,36.33
2018-02-21T00:15:38.824Z,37.58
2018-02-21T00:18:48.708Z,35.85
2018-02-21T00:21:59.247Z,30.02
2018-02-21T00:25:09.813Z,31.23
2018-02-21T00:28:19.739Z,36.38
2018-02-21T00:31:29.932Z,31.40
2018-02-21T00:34:39.806Z,31.55
2018-02-21T00:37:50.620Z,25.42
2018-02-21T00:41:01.339Z,30.30
2018-02-21T00:44:11.745Z,29.58
2018-02-21T00:47:22.518Z,29.95
2018-02-21T00:50:32.854Z,32.30
2018-02-21T00:53:43.033Z,30.10
2018-02-21T00:56:53.304Z,34.33
2018-02-21T01:00:03.409Z,29.48
2018-02-21T01:03:13.634Z,25.40
2018-02-21T01:06:23.500Z,28.48
2018-02-21T01:09:33.642Z,26.62
2018-02-21T01:12:44.937Z,26.90
2018-02-21T01:15:55.340Z,25.33
2018-02-21T01:19:05.353Z,28.20
2018-02-21T01:22:15.344Z,31.08
2018-02-21T01:25:25.261Z,31.40
2018-02-21T01:28:35.448Z,30.42
2018-02-21T01:31:45.955Z,29.23
2018-02-21T01:34:55.664Z,37.38
2018-02-21T01:38:05.770Z,27.80
2018-02-21T01:41:16.316Z,32.40
2018-02-21T01:44:27.352Z,29.63
2018-02-21T01:47:37.284Z,32.28
2018-02-21T01:50:52.614Z,24.73
2018-02-21T01:54:03.827Z,33.30
2018-02-21T01:57:14.716Z,27.75
2018-02-21T02:00:24.833Z,31.35
2018-02-21T02:03:34.911Z,27.17
2018-02-21T02:06:44.994Z,22.23
2018-02-21T02:09:55.226Z,24.33
2018-02-21T02:13:05.227Z,30.40
2018-02-21T02:16:15.132Z,25.52
2018-02-21T02:19:25.248Z,29.15
2018-02-21T02:22:35.304Z,27.42
2018-02-21T02:25:46.734Z,28.75
2018-02-21T02:28:58.023Z,31.55
2018-02-21T02:32:08.105Z,32.15
2018-02-21T02:35:18.548Z,29.77
2018-02-21T02:38:40.143Z,32.72
2018-02-21T02:41:50.790Z,31.50
2018-02-21T02:45:01.186Z,30.45
2018-02-21T02:48:11.057Z,26.77
2018-02-21T02:51:20.776Z,32.20
2018-02-21T02:54:30.783Z,24.87
2018-02-21T02:57:41.452Z,28.67
2018-02-21T03:00:52.057Z,29.08
2018-02-21T03:04:02.119Z,29.08
2018-02-21T03:07:12.112Z,36.78
2018-02-21T03:10:22.319Z,30.25
2018-02-21T03:13:32.314Z,29.30
2018-02-21T03:16:42.960Z,28.55
2018-02-21T03:19:53.214Z,29.10
2018-02-21T03:23:03.500Z,31.67
2018-02-21T03:26:14.252Z,28.42
2018-02-21T03:29:25.805Z,27.10
2018-02-21T03:32:36.029Z,28.50
2018-02-21T03:35:46.304Z,33.58
2018-02-21T03:38:56.136Z,29.48
2018-02-21T03:42:06.067Z,37.15
2018-02-21T03:45:16.303Z,31.45
2018-02-21T03:48:27.337Z,33.92
2018-02-21T03:51:37.191Z,30.10
2018-02-21T03:54:47.299Z,29.40
2018-02-21T03:57:57.044Z,28.92
2018-02-21T04:01:07.547Z,25.98
2018-02-21T04:04:18.082Z,31.95
2018-02-21T04:07:28.951Z,28.08
2018-02-21T04:10:39.334Z,27.73
2018-02-21T04:13:49.487Z,30.50
2018-02-21T04:16:59.325Z,33.33
2018-02-21T04:20:09.148Z,27.98
2018-02-21T04:23:19.706Z,22.65
2018-02-21T04:26:29.930Z,26.10
2018-02-21T04:29:40.100Z,28.48
2018-02-21T04:32:49.979Z,25.73
2018-02-21T04:36:00.258Z,29.50
2018-02-21T04:39:10.176Z,32.83
2018-02-21T04:42:20.501Z,19.37
2018-02-21T04:45:30.608Z,30.83
2018-02-21T04:48:41.440Z,26.17
2018-02-21T04:51:52.040Z,33.20
2018-02-21T04:58:49.714Z,28.52
2018-02-21T05:02:00.040Z,29.95
2018-02-21T05:05:10.324Z,28.45
2018-02-21T05:08:20.081Z,31.17
2018-02-21T05:11:30.564Z,29.70
2018-02-21T05:14:40.619Z,26.00
2018-02-21T05:17:50.415Z,35.28
2018-02-21T05:21:00.344Z,27.33
2018-02-21T05:24:10.487Z,28.40
2018-02-21T05:27:20.424Z,33.83
2018-02-21T05:30:30.262Z,32.83
2018-02-21T05:33:40.433Z,29.63
2018-02-21T05:36:50.253Z,25.98
2018-02-21T05:40:00.274Z,33.63
2018-02-21T05:43:10.423Z,30.23
2018-02-21T05:46:20.203Z,28.67
2018-02-21T05:49:30.314Z,31.85
2018-02-21T05:52:40.989Z,32.28
2018-02-21T05:55:51.791Z,28.45
2018-02-21T05:59:01.655Z,29.35
2018-02-21T06:02:12.203Z,29.08
2018-02-21T06:05:23.038Z,31.67
2018-02-21T06:08:33.758Z,31.23
2018-02-21T06:11:44.376Z,33.72
2018-02-21T06:14:55.066Z,32.38
2018-02-21T06:18:05.124Z,25.85
2018-02-21T06:21:15.236Z,25.75
2018-02-21T06:24:25.281Z,35.95
2018-02-21T06:27:36.149Z,30.00
2018-02-21T06:30:46.114Z,33.30
2018-02-21T06:33:56.263Z,27.75
2018-02-21T06:37:06.302Z,25.33
2018-02-21T06:40:16.161Z,32.40
2018-02-21T06:43:26.769Z,29.95
2018-02-21T06:46:36.878Z,32.75
2018-02-21T06:49:47.728Z,36.08
2018-02-21T06:52:57.601Z,37.50
2018-02-21T06:56:07.755Z,32.28
2018-02-21T06:59:17.555Z,33.92
2018-02-21T07:02:34.876Z,31.10
2018-02-21T07:05:44.830Z,30.27
2018-02-21T07:08:54.650Z,27.87
2018-02-21T07:12:04.619Z,29.60
2018-02-21T07:15:14.668Z,29.35
2018-02-21T07:18:24.625Z,35.80
2018-02-21T07:21:34.704Z,31.48
2018-02-21T07:24:44.567Z,30.42
2018-02-21T07:27:54.610Z,35.47
2018-02-21T07:31:05.430Z,35.30
2018-02-21T07:34:16.371Z,35.00
2018-02-21T07:37:26.709Z,30.80
2018-02-21T07:40:41.199Z,23.30
2018-02-21T07:43:50.891Z,37.00
2018-02-21T07:47:00.827Z,19.87
2018-02-21T07:50:11.005Z,18.20
2018-02-21T07:53:21.167Z,38.88
2018-02-21T07:56:31.431Z,32.88
2018-02-21T07:59:41.307Z,34.45
2018-02-21T08:02:51.567Z,23.25
2018-02-21T08:06:01.757Z,21.90
2018-02-21T08:09:11.932Z,35.63
2018-02-21T08:12:21.906Z,37.75
2018-02-21T08:15:31.956Z,27.37
2018-02-21T08:18:41.873Z,24.17
2018-02-21T08:21:52.214Z,40.20
2018-02-21T08:25:02.756Z,37.95
2018-02-21T08:28:13.191Z,37.50
2018-02-21T08:31:23.198Z,37.78
2018-02-21T08:34:33.524Z,24.98
2018-02-21T08:37:44.349Z,26.52
2018-02-21T08:40:54.844Z,29.73
2018-02-21T08:44:04.609Z,40.17
2018-02-21T08:47:14.645Z,23.50
2018-02-21T08:50:25.625Z,38.28
2018-02-21T08:53:36.075Z,33.42
2018-02-21T08:56:46.552Z,18.95
2018-02-21T08:59:56.622Z,29.10
2018-02-21T09:03:06.532Z,34.65
2018-02-21T09:06:16.642Z,34.60
2018-02-21T09:09:26.755Z,40.03
2018-02-21T09:12:36.853Z,34.55
2018-02-21T09:15:47.063Z,26.12
2018-02-21T09:18:57.768Z,30.55
2018-02-21T09:22:07.836Z,19.23
2018-02-21T09:25:17.918Z,35.58
2018-02-21T09:28:28.412Z,42.65
2018-02-21T09:31:38.469Z,31.77
2018-02-21T09:34:48.727Z,25.35
2018-02-21T09:37:59.031Z,30.52
2018-02-21T09:41:10.468Z,28.98
2018-02-21T09:44:21.083Z,31.55
2018-02-21T09:47:31.197Z,30.42
2018-02-21T09:50:41.853Z,36.05
2018-02-21T09:53:52.137Z,31.30
2018-02-21T09:57:03.092Z,27.05
2018-02-21T10:00:13.516Z,33.80
2018-02-21T10:03:23.606Z,25.65
2018-02-21T10:06:34.343Z,34.25
2018-02-21T10:09:45.038Z,33.15
2018-02-21T10:12:55.281Z,41.37
2018-02-21T10:16:05.308Z,42.78
2018-02-21T10:19:15.276Z,22.65
2018-02-21T10:22:25.353Z,32.42
2018-02-21T10:25:35.638Z,45.25
2018-02-21T10:28:46.344Z,37.60
2018-02-21T10:31:56.902Z,30.40
2018-02-21T10:35:06.913Z,35.53
2018-02-21T10:38:17.676Z,35.42
2018-02-21T10:41:28.877Z,28.65
2018-02-21T10:44:39.233Z,26.90
2018-02-21T10:47:49.652Z,26.65
2018-02-21T10:51:00.099Z,23.05
2018-02-21T10:54:10.991Z,34.08
2018-02-21T10:57:21.261Z,20.80
2018-02-21T11:00:36.987Z,20.77
2018-02-21T11:03:46.857Z,23.60
2018-02-21T11:06:57.561Z,24.80
2018-02-21T11:10:07.638Z,33.22
2018-02-21T11:13:17.817Z,24.30
2018-02-21T11:16:28.620Z,33.55
2018-02-21T11:19:39.311Z,31.10
2018-02-21T11:22:49.320Z,24.58
2018-02-21T11:25:59.546Z,28.15
2018-02-21T11:29:09.498Z,34.00
2018-02-21T11:32:19.700Z,21.70
2018-02-21T11:35:29.789Z,32.78
2018-02-21T11:38:40.127Z,24.77
2018-02-21T11:41:50.018Z,29.70
2018-02-21T11:44:59.916Z,36.97
2018-02-21T11:48:10.203Z,31.90
2018-02-21T11:51:20.654Z,31.62
2018-02-21T11:54:30.520Z,29.87
2018-02-21T11:57:41.461Z,31.80
2018-02-21T12:00:51.293Z,28.42
2018-02-21T12:04:01.448Z,30.25
2018-02-21T12:07:11.611Z,21.50
2018-02-21T12:10:22.829Z,13.52
2018-02-21T12:13:33.004Z,25.10
2018-02-21T12:16:42.938Z,26.40
2018-02-21T12:19:53.577Z,25.42
2018-02-21T12:23:03.622Z,22.52
2018-02-21T12:26:13.868Z,22.98
2018-02-21T12:29:24.617Z,24.87
2018-02-21T12:36:09.003Z,25.27
2018-02-21T12:39:25.608Z,26.15
2018-02-21T12:42:36.943Z,20.98
2018-02-21T12:45:47.299Z,23.25
2018-02-21T12:48:57.192Z,23.02
2018-02-21T12:52:07.448Z,16.80
2018-02-21T12:55:17.306Z,19.60
2018-02-21T12:58:28.222Z,13.23
2018-02-21T13:01:38.120Z,21.15
2018-02-21T13:04:49.064Z,21.12
2018-02-21T13:07:59.499Z,18.67
2018-02-21T13:11:09.901Z,23.17
2018-02-21T13:14:19.725Z,23.65
2018-02-21T13:17:29.871Z,23.12
2018-02-21T13:20:39.810Z,23.70
2018-02-21T13:23:50.516Z,27.35
2018-02-21T13:27:00.608Z,20.80
2018-02-21T13:30:10.677Z,17.45
2018-02-21T13:33:20.612Z,22.13
2018-02-21T13:36:30.414Z,19.45
2018-02-21T13:39:40.778Z,24.05
2018-02-21T13:42:51.665Z,20.35
2018-02-21T13:46:01.688Z,21.20
2018-02-21T13:49:12.263Z,19.23
2018-02-21T13:52:22.414Z,17.60
2018-02-21T13:55:33.099Z,20.55
2018-02-21T13:58:43.388Z,20.58
2018-02-21T14:01:53.451Z,22.65
2018-02-21T14:05:04.066Z,23.65
2018-02-21T14:08:14.964Z,21.12
2018-02-21T14:11:25.191Z,14.95
2018-02-21T14:14:35.049Z,24.55
2018-02-21T14:17:45.116Z,21.73
2018-02-21T14:20:55.092Z,19.30
2018-02-21T14:24:08.260Z,20.12
2018-02-21T14:27:19.086Z,17.08
2018-02-21T14:30:29.510Z,22.83
2018-02-21T14:33:39.551Z,20.83
2018-02-21T14:36:49.385Z,16.27
2018-02-21T14:39:59.238Z,23.12
2018-02-21T14:43:09.925Z,19.23
2018-02-21T14:46:19.914Z,19.65
2018-02-21T14:49:30.296Z,18.25
2018-02-21T14:52:40.123Z,22.67
2018-02-21T14:55:50.468Z,21.15
2018-02-21T14:59:01.202Z,18.90
2018-02-21T15:02:11.219Z,20.98
2018-02-21T15:05:21.800Z,23.87
2018-02-21T15:08:32.527Z,17.87
2018-02-21T15:11:43.303Z,25.52
2018-02-21T15:14:53.259Z,21.90
2018-02-21T15:18:03.605Z,24.20
2018-02-21T15:21:13.631Z,16.17
2018-02-21T15:24:31.681Z,25.37
2018-02-21T15:27:42.253Z,17.87
2018-02-21T15:30:53.400Z,20.27
2018-02-21T15:34:03.623Z,19.62
2018-02-21T15:37:13.852Z,22.02
2018-02-21T15:40:25.222Z,21.17
2018-02-21T15:43:36.916Z,21.42
2018-02-21T15:46:47.291Z,21.12
2018-02-21T15:49:57.097Z,18.77
2018-02-21T15:53:07.281Z,21.08
2018-02-21T15:56:17.340Z,20.05
2018-02-21T15:59:27.546Z,15.80
2018-02-21T16:02:37.908Z,19.70
2018-02-21T16:05:48.743Z,18.98
2018-02-21T16:08:59.170Z,19.30
2018-02-21T16:12:09.080Z,19.30
2018-02-21T16:15:19.017Z,16.92
2018-02-21T16:18:29.706Z,22.10
2018-02-21T16:21:40.531Z,18.50
2018-02-21T16:24:50.395Z,17.80
2018-02-21T16:28:01.469Z,21.45
2018-02-21T16:31:11.448Z,18.52
2018-02-21T16:34:21.284Z,17.00
2018-02-21T16:37:31.206Z,15.82
2018-02-21T16:40:41.362Z,13.88
2018-02-21T16:43:51.563Z,20.33
2018-02-21T16:47:02.343Z,16.15
2018-02-21T16:50:12.231Z,17.30
2018-02-21T16:53:22.269Z,14.75
2018-02-21T16:56:32.672Z,20.08
2018-02-21T16:59:44.094Z,16.10
2018-02-21T17:02:55.116Z,15.38
2018-02-21T17:06:05.695Z,13.65
2018-02-21T17:09:16.301Z,14.60
2018-02-21T17:12:27.161Z,18.75
2018-02-21T17:15:37.257Z,16.50
2018-02-21T17:18:47.982Z,18.52
2018-02-21T17:21:58.380Z,20.45
2018-02-21T17:25:08.449Z,17.60
2018-02-21T17:28:19.038Z,18.27
2018-02-21T17:31:28.927Z,16.45
2018-02-21T17:34:38.861Z,14.38
2018-02-21T17:37:48.859Z,17.90
2018-02-21T17:41:05.020Z,18.17
2018-02-21T17:44:15.848Z,17.52
2018-02-21T17:47:26.314Z,14.90
2018-02-21T17:50:36.429Z,21.37
2018-02-21T17:53:46.942Z,21.02
2018-02-21T17:56:57.455Z,14.73
2018-02-21T18:00:07.817Z,14.82
2018-02-21T18:03:17.715Z,17.23
2018-02-21T18:06:27.724Z,16.23
2018-02-21T18:09:37.523Z,15.07
2018-02-21T18:12:49.079Z,18.40
2018-02-21T18:15:59.212Z,20.33
2018-02-21T18:19:09.220Z,17.85
2018-02-21T18:22:19.208Z,18.52
2018-02-21T18:25:30.035Z,15.18
2018-02-21T18:28:40.253Z,15.80
2018-02-21T18:31:50.434Z,13.45
2018-02-21T18:35:00.628Z,16.30
2018-02-21T18:38:11.655Z,18.52
2018-02-21T18:41:22.046Z,17.23
2018-02-21T18:44:32.496Z,18.40
2018-02-21T18:47:43.183Z,17.10
2018-02-21T18:50:53.214Z,17.42
2018-02-21T18:54:03.556Z,15.38
2018-02-21T18:57:13.495Z,20.00
2018-02-21T19:00:24.223Z,17.27
2018-02-21T19:03:34.939Z,17.02
2018-02-21T19:06:45.541Z,16.58
2018-02-21T19:09:56.847Z,15.60
2018-02-21T19:13:07.613Z,17.27
2018-02-21T19:16:18.331Z,17.50
2018-02-21T19:19:28.323Z,15.35
2018-02-21T19:22:38.778Z,17.02
2018-02-21T19:25:49.366Z,16.67
2018-02-21T19:29:00.076Z,15.55
2018-02-21T19:32:10.037Z,16.10
2018-02-21T19:35:19.841Z,14.90
2018-02-21T19:38:29.844Z,17.45
2018-02-21T19:41:40.801Z,15.82
2018-02-21T19:44:51.067Z,16.12
2018-02-21T19:48:00.980Z,17.40
2018-02-21T19:51:10.863Z,16.10
2018-02-21T19:54:21.476Z,19.58
2018-02-21T19:57:32.062Z,12.68
2018-02-21T20:00:42.158Z,11.95
2018-02-21T20:03:52.931Z,15.90
2018-02-21T20:07:02.727Z,14.00
2018-02-21T20:10:13.062Z,18.02
2018-02-21T20:13:24.040Z,19.52
2018-02-21T20:16:34.379Z,14.05
2018-02-21T20:19:44.789Z,17.95
2018-02-21T20:22:54.959Z,15.82
2018-02-21T20:26:05.212Z,17.40
2018-02-21T20:29:15.125Z,16.70
2018-02-21T20:32:25.464Z,15.52
2018-02-21T20:35:36.709Z,17.75
2018-02-21T20:38:46.801Z,16.25
2018-02-21T20:41:56.928Z,18.98
2018-02-21T20:45:06.791Z,16.33
2018-02-21T20:48:17.553Z,14.77
2018-02-21T20:51:27.720Z,18.25
2018-02-21T20:54:37.595Z,16.95
2018-02-21T20:57:47.564Z,15.48
2018-02-21T21:00:57.791Z,15.60
2018-02-21T21:04:07.572Z,16.30
2018-02-21T21:07:17.765Z,15.43
2018-02-21T21:10:28.399Z,15.38
2018-02-21T21:13:39.494Z,18.45
2018-02-21T21:16:49.726Z,16.37
2018-02-21T21:20:00.556Z,14.70
2018-02-21T21:23:10.441Z,17.92
2018-02-21T21:26:20.857Z,17.17
2018-02-21T21:29:31.311Z,13.82
2018-02-21T21:32:41.151Z,17.77
2018-02-21T21:35:51.883Z,12.20
2018-02-21T21:39:01.735Z,20.42
2018-02-21T21:42:11.968Z,19.42
2018-02-21T21:45:21.741Z,17.25
2018-02-21T21:48:32.023Z,16.65
2018-02-21T21:51:42.192Z,16.30
2018-02-21T21:54:52.147Z,15.40
2018-02-21T21:58:02.136Z,19.55
2018-02-21T22:01:12.141Z,19.90
2018-02-21T22:04:22.997Z,16.60
2018-02-21T22:07:33.335Z,13.15
2018-02-21T22:10:43.343Z,13.55
2018-02-21T22:13:53.244Z,14.63
2018-02-21T22:17:03.283Z,15.30
2018-02-21T22:20:14.087Z,15.43
2018-02-21T22:23:24.368Z,17.25
2018-02-21T22:26:34.194Z,15.95
2018-02-21T22:29:44.786Z,18.12
2018-02-21T22:32:54.848Z,20.83
2018-02-21T22:36:04.873Z,15.52
2018-02-21T22:39:15.068Z,16.98
2018-02-21T22:42:25.074Z,16.33
2018-02-21T22:45:35.808Z,15.40
2018-02-21T22:48:45.543Z,16.00
2018-02-21T22:51:55.412Z,14.70
2018-02-21T22:55:05.375Z,17.83
2018-02-21T22:58:15.333Z,15.52
2018-02-21T23:01:26.008Z,15.25
2018-02-21T23:04:36.905Z,16.17
2018-02-21T23:07:47.754Z,16.80
2018-02-21T23:10:58.232Z,13.55
2018-02-21T23:14:08.189Z,15.43
2018-02-21T23:17:17.951Z,19.95
2018-02-21T23:20:27.985Z,17.45
2018-02-21T23:23:37.828Z,17.08
2018-02-21T23:26:47.804Z,20.10
2018-02-21T23:29:57.784Z,19.02
2018-02-21T23:33:07.852Z,16.75
2018-02-21T23:36:17.771Z,13.93
2018-02-21T23:39:28.029Z,12.95
2018-02-21T23:42:38.740Z,18.62
2018-02-21T23:45:49.275Z,16.55
2018-02-21T23:48:59.705Z,19.50
2018-02-21T23:52:09.853Z,14.10
2018-02-21T23:55:20.057Z,15.70
2018-02-21T23:58:30.481Z,16.42
